Time;durP1;ratioP1;P1;durP2;ratioP2;P2;SDS_P1;SDS_P2;PMS_P1;PMS_P2;Temp;Humidity;BMP_temperature;BMP_pressure;BME280_temperature;BME280_humidity;BME280_pressure;Samples;Min_cycle;Max_cycle;Signal;HPM_P1;HPM_P2
2022/09/06 00:00:40;;;;;;;6.15;3.42;;;;;;;;;;5072032;28;20048;-68
2022/09/06 00:03:09;;;;;;;3.95;3.15;;;;;;;;;;5071923;28;20044;-69
2022/09/06 00:05:36;;;;;;;3.75;3.10;;;;;;;;;;5071859;28;20060;-69
2022/09/06 00:08:04;;;;;;;7.60;3.63;;;;;;;;;;5072219;28;20062;-69
2022/09/06 00:10:31;;;;;;;3.40;3.00;;;;;;;;;;5071979;28;20075;-69
2022/09/06 00:13:05;;;;;;;4.20;3.42;;;;;;;;;;5071837;28;20048;-69
2022/09/06 00:15:32;;;;;;;3.28;2.97;;;;;;;;;;5071919;28;20049;-69
2022/09/06 00:18:00;;;;;;;3.90;3.50;;;;;;;;;;5071587;28;20045;-69
2022/09/06 00:20:28;;;;;;;4.78;3.40;;;;;;;;;;5071747;28;20051;-69
2022/09/06 00:22:58;;;;;;;5.75;3.15;;;;;;;;;;5071968;28;20063;-69
2022/09/06 00:25:26;;;;;;;5.70;3.22;;;;;;;;;;5071897;28;20048;-69
2022/09/06 00:27:54;;;;;;;6.05;3.08;;;;;;;;;;5071937;28;20052;-69
2022/09/06 00:30:22;;;;;;;4.25;3.17;;;;;;;;;;5071792;28;20048;-69
2022/09/06 00:32:48;;;;;;;7.28;3.53;;;;;;;;;;5071561;28;20055;-69
2022/09/06 00:35:16;;;;;;;4.30;2.90;;;;;;;;;;5071710;28;20048;-69
2022/09/06 00:37:43;;;;;;;5.38;3.58;;;;;;;;;;5071831;28;20044;-69
2022/09/06 00:40:10;;;;;;;4.15;3.33;;;;;;;;;;5071633;28;20127;-69
2022/09/06 00:42:37;;;;;;;3.85;3.53;;;;;;;;;;5074466;28;20078;-68
2022/09/06 00:45:06;;;;;;;3.70;3.33;;;;;;;;;;5075059;28;20058;-69
2022/09/06 00:47:33;;;;;;;3.92;3.30;;;;;;;;;;5075389;28;20048;-69
2022/09/06 00:50:00;;;;;;;4.40;3.40;;;;;;;;;;5073752;28;20049;-68
2022/09/06 00:52:27;;;;;;;5.57;3.78;;;;;;;;;;5057567;28;20105;-69
2022/09/06 00:54:55;;;;;;;4.82;3.47;;;;;;;;;;5073840;28;20522;-69
2022/09/06 00:57:25;;;;;;;4.28;3.63;;;;;;;;;;5073492;28;20041;-69
2022/09/06 00:59:53;;;;;;;3.97;3.58;;;;;;;;;;5074757;28;20050;-69
2022/09/06 01:02:20;;;;;;;4.78;3.70;;;;;;;;;;5057247;28;20057;-69
2022/09/06 01:04:47;;;;;;;5.75;3.70;;;;;;;;;;5074840;28;20415;-69
2022/09/06 01:07:29;;;;;;;5.57;3.88;;;;;;;;;;5073617;28;20102;-69
2022/09/06 01:10:04;;;;;;;3.75;3.00;;;;;;;;;;5058491;28;20052;-69
2022/09/06 01:12:57;;;;;;;4.78;3.47;;;;;;;;;;5074574;28;20109;-69
2022/09/06 01:15:39;;;;;;;4.60;3.50;;;;;;;;;;5073922;28;20048;-69
2022/09/06 01:18:05;;;;;;;6.93;3.42;;;;;;;;;;5057829;28;20044;-69
2022/09/06 01:21:04;;;;;;;6.20;3.30;;;;;;;;;;5074454;28;20052;-68
2022/09/06 01:23:40;;;;;;;4.43;3.55;;;;;;;;;;5056314;28;20056;-69
2022/09/06 01:26:39;;;;;;;5.68;3.65;;;;;;;;;;5074518;28;20518;-69
2022/09/06 01:29:15;;;;;;;4.00;3.25;;;;;;;;;;5073531;28;20048;-69
2022/09/06 01:32:06;;;;;;;5.88;3.28;;;;;;;;;;5073316;28;20052;-69
2022/09/06 01:34:36;;;;;;;3.58;3.28;;;;;;;;;;5073103;28;20495;-68
2022/09/06 01:37:11;;;;;;;3.58;3.28;;;;;;;;;;5056667;28;20063;-68
2022/09/06 01:39:39;;;;;;;3.75;3.30;;;;;;;;;;5072975;28;20055;-68
2022/09/06 01:42:14;;;;;;;3.83;3.50;;;;;;;;;;5074219;28;20053;-68
2022/09/06 01:44:46;;;;;;;4.88;3.08;;;;;;;;;;5074095;28;20102;-69
2022/09/06 01:47:18;;;;;;;5.07;3.20;;;;;;;;;;5056416;28;20044;-68
2022/09/06 01:49:51;;;;;;;6.07;3.47;;;;;;;;;;5073883;28;20072;-68
2022/09/06 01:52:41;;;;;;;4.60;3.58;;;;;;;;;;5072605;28;20053;-68
2022/09/06 01:55:22;;;;;;;3.80;3.50;;;;;;;;;;5068367;28;20052;-68
2022/09/06 01:58:13;;;;;;;4.97;3.80;;;;;;;;;;5072476;28;20045;-68
2022/09/06 02:00:58;;;;;;;3.97;3.60;;;;;;;;;;5074192;28;20048;-69
2022/09/06 02:03:30;;;;;;;5.05;3.92;;;;;;;;;;5073800;28;20503;-68
2022/09/06 02:06:06;;;;;;;6.32;3.78;;;;;;;;;;5056588;28;20269;-68
2022/09/06 02:08:38;;;;;;;5.63;4.10;;;;;;;;;;5072518;28;20049;-68
2022/09/06 02:11:06;;;;;;;5.10;3.60;;;;;;;;;;5056391;28;20125;-68
2022/09/06 02:13:43;;;;;;;4.28;3.70;;;;;;;;;;5072389;28;20048;-68
2022/09/06 02:16:11;;;;;;;5.97;3.90;;;;;;;;;;5056507;28;20059;-68
2022/09/06 02:18:58;;;;;;;7.72;4.10;;;;;;;;;;5072112;28;20049;-68
2022/09/06 02:21:29;;;;;;;3.53;3.22;;;;;;;;;;5056947;28;20064;-68
2022/09/06 02:23:56;;;;;;;5.57;3.95;;;;;;;;;;5072194;28;20499;-69
2022/09/06 02:26:25;;;;;;;5.90;4.35;;;;;;;;;;5072126;28;20126;-68
2022/09/06 02:28:51;;;;;;;4.75;4.28;;;;;;;;;;5071926;28;20443;-68
2022/09/06 02:31:28;;;;;;;6.63;4.80;;;;;;;;;;5055202;28;20056;-68
2022/09/06 02:33:54;;;;;;;6.90;4.55;;;;;;;;;;5071949;28;20457;-68
2022/09/06 02:36:21;;;;;;;6.30;4.75;;;;;;;;;;5055537;28;20052;-68
2022/09/06 02:38:48;;;;;;;7.88;4.90;;;;;;;;;;5072852;28;20053;-68
2022/09/06 02:41:17;;;;;;;7.45;4.60;;;;;;;;;;5073115;28;20056;-69
2022/09/06 02:43:44;;;;;;;6.85;4.28;;;;;;;;;;5055366;28;20048;-68
2022/09/06 02:46:11;;;;;;;6.40;4.20;;;;;;;;;;5072891;28;20556;-68
2022/09/06 02:48:38;;;;;;;5.53;4.25;;;;;;;;;;5072731;28;20048;-69
2022/09/06 02:51:05;;;;;;;6.50;3.53;;;;;;;;;;5072739;28;20135;-69
2022/09/06 02:53:32;;;;;;;4.50;4.10;;;;;;;;;;5072848;28;20044;-69
2022/09/06 02:55:59;;;;;;;4.63;3.38;;;;;;;;;;5072748;28;20076;-69
2022/09/06 02:58:26;;;;;;;3.90;3.50;;;;;;;;;;5072560;28;20048;-68
2022/09/06 03:00:53;;;;;;;5.00;3.35;;;;;;;;;;5072996;28;20080;-69
2022/09/06 03:03:20;;;;;;;5.93;3.60;;;;;;;;;;5072580;28;20131;-69
2022/09/06 03:05:50;;;;;;;7.90;4.35;;;;;;;;;;5072171;28;20052;-69
2022/09/06 03:08:18;;;;;;;6.82;4.65;;;;;;;;;;5072567;28;20040;-70
2022/09/06 03:10:48;;;;;;;8.40;4.30;;;;;;;;;;5072733;28;20056;-70
2022/09/06 03:13:15;;;;;;;5.63;4.53;;;;;;;;;;5072434;28;20059;-69
2022/09/06 03:15:42;;;;;;;5.53;4.60;;;;;;;;;;5072705;28;20045;-69
2022/09/06 03:18:09;;;;;;;5.63;5.03;;;;;;;;;;5070944;28;20048;-70
2022/09/06 03:20:35;;;;;;;9.30;5.00;;;;;;;;;;5072449;28;20052;-69
2022/09/06 03:23:02;;;;;;;9.38;5.70;;;;;;;;;;5072461;28;20127;-69
2022/09/06 03:25:29;;;;;;;6.53;5.80;;;;;;;;;;5072329;28;20410;-69
2022/09/06 03:27:56;;;;;;;7.38;6.10;;;;;;;;;;5072300;28;20048;-69
2022/09/06 03:30:22;;;;;;;7.60;6.00;;;;;;;;;;5072439;28;20052;-69
2022/09/06 03:32:49;;;;;;;8.27;5.97;;;;;;;;;;5072443;28;20045;-69
2022/09/06 03:35:15;;;;;;;7.85;6.18;;;;;;;;;;5072264;28;20052;-69
2022/09/06 03:37:42;;;;;;;9.27;6.05;;;;;;;;;;5072123;28;20072;-69
2022/09/06 03:40:09;;;;;;;9.25;6.50;;;;;;;;;;5072049;28;20064;-69
2022/09/06 03:42:36;;;;;;;7.80;5.97;;;;;;;;;;5071820;28;20067;-69
2022/09/06 03:45:03;;;;;;;8.27;6.75;;;;;;;;;;5071978;28;20052;-69
2022/09/06 03:47:29;;;;;;;7.10;6.40;;;;;;;;;;5071761;28;20097;-69
2022/09/06 03:49:56;;;;;;;7.68;6.75;;;;;;;;;;5071995;28;20048;-69
2022/09/06 03:52:23;;;;;;;8.77;7.00;;;;;;;;;;5071800;28;20469;-69
2022/09/06 03:54:49;;;;;;;10.45;7.05;;;;;;;;;;5071767;28;20060;-69
2022/09/06 03:57:16;;;;;;;8.05;7.10;;;;;;;;;;5071806;28;20105;-69
2022/09/06 03:59:42;;;;;;;12.63;7.97;;;;;;;;;;5071419;28;20055;-69
2022/09/06 04:02:09;;;;;;;9.27;7.63;;;;;;;;;;5071706;28;20056;-69
2022/09/06 04:04:35;;;;;;;10.80;7.85;;;;;;;;;;5071824;28;20392;-69
2022/09/06 04:07:02;;;;;;;10.73;8.05;;;;;;;;;;5072085;28;20097;-69
2022/09/06 04:09:29;;;;;;;11.15;7.00;;;;;;;;;;5071605;28;20052;-69
2022/09/06 04:11:55;;;;;;;10.85;7.55;;;;;;;;;;5072286;28;20048;-69
2022/09/06 04:14:22;;;;;;;11.07;8.32;;;;;;;;;;5071834;28;20048;-69
2022/09/06 04:16:49;;;;;;;11.10;7.60;;;;;;;;;;5073563;28;20052;-69
2022/09/06 04:19:16;;;;;;;10.15;8.18;;;;;;;;;;5075897;28;20049;-69
2022/09/06 04:21:42;;;;;;;12.57;7.60;;;;;;;;;;5075535;28;20078;-69
2022/09/06 04:24:09;;;;;;;12.13;8.23;;;;;;;;;;5075678;28;20458;-69
2022/09/06 04:26:36;;;;;;;12.63;8.70;;;;;;;;;;5075809;28;20048;-69
2022/09/06 04:29:02;;;;;;;10.55;8.30;;;;;;;;;;5075258;28;20048;-69
2022/09/06 04:31:29;;;;;;;9.20;7.72;;;;;;;;;;5075440;28;20048;-70
2022/09/06 04:33:56;;;;;;;11.77;8.52;;;;;;;;;;5075387;28;20052;-70
2022/09/06 04:36:22;;;;;;;9.43;8.50;;;;;;;;;;5075242;28;20048;-70
2022/09/06 04:38:49;;;;;;;9.65;7.88;;;;;;;;;;5075140;28;20041;-69
2022/09/06 04:41:17;;;;;;;8.38;7.47;;;;;;;;;;5075433;28;20051;-69
2022/09/06 04:43:44;;;;;;;10.90;8.13;;;;;;;;;;5074268;28;20048;-70
2022/09/06 04:46:23;;;;;;;9.40;7.50;;;;;;;;;;5075191;28;20044;-70
2022/09/06 04:48:51;;;;;;;13.88;9.25;;;;;;;;;;5073952;28;20049;-69
2022/09/06 04:51:17;;;;;;;10.98;8.75;;;;;;;;;;5074073;28;20106;-70
2022/09/06 04:53:44;;;;;;;11.80;9.10;;;;;;;;;;5075142;28;20049;-70
2022/09/06 04:56:19;;;;;;;11.07;8.95;;;;;;;;;;5075103;28;20082;-69
2022/09/06 04:58:47;;;;;;;13.75;9.18;;;;;;;;;;5074805;28;20450;-68
2022/09/06 05:01:14;;;;;;;9.45;8.50;;;;;;;;;;5074851;28;20052;-68
2022/09/06 05:03:41;;;;;;;11.35;9.07;;;;;;;;;;5073674;28;20683;-69
2022/09/06 05:06:10;;;;;;;10.63;8.10;;;;;;;;;;5075262;28;20105;-69
2022/09/06 05:08:37;;;;;;;12.32;8.68;;;;;;;;;;5074459;28;20045;-69
2022/09/06 05:11:05;;;;;;;10.27;7.65;;;;;;;;;;5074851;28;20401;-70
2022/09/06 05:13:32;;;;;;;13.50;8.57;;;;;;;;;;5074620;28;20045;-70
2022/09/06 05:16:03;;;;;;;15.18;8.45;;;;;;;;;;5073428;28;20052;-69
2022/09/06 05:18:29;;;;;;;9.52;8.40;;;;;;;;;;5073161;28;20049;-70
2022/09/06 05:20:57;;;;;;;13.48;9.65;;;;;;;;;;5074458;28;20525;-70
2022/09/06 05:23:24;;;;;;;12.65;8.63;;;;;;;;;;5074545;28;20449;-70
2022/09/06 05:25:51;;;;;;;9.80;8.85;;;;;;;;;;5074399;28;20052;-70
2022/09/06 05:28:18;;;;;;;9.85;8.85;;;;;;;;;;5072894;28;20094;-71
2022/09/06 05:30:45;;;;;;;12.35;8.60;;;;;;;;;;5074183;28;20053;-71
2022/09/06 05:33:13;;;;;;;10.82;8.65;;;;;;;;;;5074364;28;20052;-71
2022/09/06 05:35:39;;;;;;;10.38;8.40;;;;;;;;;;5074509;28;20056;-70
2022/09/06 05:38:06;;;;;;;10.45;8.05;;;;;;;;;;5074270;28;20056;-70
2022/09/06 05:40:32;;;;;;;13.60;7.63;;;;;;;;;;5074123;28;20048;-70
2022/09/06 05:42:59;;;;;;;9.48;7.88;;;;;;;;;;5074557;28;20609;-70
2022/09/06 05:45:26;;;;;;;11.60;7.80;;;;;;;;;;5074148;28;20048;-71
2022/09/06 05:47:52;;;;;;;10.75;8.73;;;;;;;;;;5100832;22;20050;-67
2022/09/06 05:50:19;;;;;;;8.85;7.95;;;;;;;;;;4999892;28;20050;-67
2022/09/06 05:52:46;;;;;;;12.10;7.80;;;;;;;;;;5016243;28;20053;-67
2022/09/06 05:55:12;;;;;;;12.20;7.32;;;;;;;;;;5032525;28;20455;-67
2022/09/06 05:57:39;;;;;;;10.05;8.40;;;;;;;;;;4999466;28;20056;-67
2022/09/06 06:00:06;;;;;;;10.75;7.82;;;;;;;;;;5033301;28;20416;-66
2022/09/06 06:02:33;;;;;;;9.80;7.75;;;;;;;;;;5015759;28;20053;-66
2022/09/06 06:05:00;;;;;;;11.35;8.48;;;;;;;;;;5015897;28;20060;-66
2022/09/06 06:07:27;;;;;;;8.90;8.00;;;;;;;;;;5033408;28;20053;-67
2022/09/06 06:09:54;;;;;;;9.25;7.72;;;;;;;;;;4999185;28;20455;-66
2022/09/06 06:12:21;;;;;;;10.52;7.78;;;;;;;;;;5015475;28;20107;-67
2022/09/06 06:14:47;;;;;;;9.32;8.30;;;;;;;;;;5033235;28;20050;-67
2022/09/06 06:17:15;;;;;;;9.23;8.18;;;;;;;;;;5015657;28;20419;-67
2022/09/06 06:19:42;;;;;;;9.35;7.45;;;;;;;;;;5032674;28;20053;-67
2022/09/06 06:22:09;;;;;;;11.00;7.13;;;;;;;;;;4983545;28;20049;-67
2022/09/06 06:24:36;;;;;;;10.05;7.78;;;;;;;;;;5032765;28;20060;-67
2022/09/06 06:27:03;;;;;;;11.88;7.93;;;;;;;;;;5033164;28;20049;-66
2022/09/06 06:29:30;;;;;;;11.32;7.85;;;;;;;;;;5015228;28;20385;-67
2022/09/06 06:31:56;;;;;;;9.70;6.90;;;;;;;;;;5032658;28;20132;-66
2022/09/06 06:34:23;;;;;;;12.23;7.55;;;;;;;;;;5015370;28;20128;-67
2022/09/06 06:36:50;;;;;;;6.45;5.78;;;;;;;;;;5032729;28;20045;-67
2022/09/06 06:39:16;;;;;;;10.10;7.03;;;;;;;;;;5031575;28;20075;-67
2022/09/06 06:41:43;;;;;;;10.98;6.88;;;;;;;;;;5032800;28;20099;-67
2022/09/06 06:44:09;;;;;;;9.80;6.65;;;;;;;;;;5032571;28;20045;-68
2022/09/06 06:46:37;;;;;;;12.13;7.30;;;;;;;;;;5015166;28;20447;-68
2022/09/06 06:49:04;;;;;;;8.75;6.35;;;;;;;;;;4982746;28;20080;-68
2022/09/06 06:51:32;;;;;;;7.90;6.65;;;;;;;;;;4998872;28;20108;-67
2022/09/06 06:53:58;;;;;;;8.48;5.75;;;;;;;;;;5014663;28;20053;-68
2022/09/06 06:56:30;;;;;;;9.48;6.32;;;;;;;;;;5032320;28;20049;-67
2022/09/06 06:59:03;;;;;;;7.60;5.55;;;;;;;;;;4998197;28;20103;-68
2022/09/06 07:01:30;;;;;;;7.47;5.57;;;;;;;;;;5015691;28;20057;-67
2022/09/06 07:03:58;;;;;;;8.98;5.07;;;;;;;;;;5014748;28;20103;-68
2022/09/06 07:06:26;;;;;;;8.88;4.95;;;;;;;;;;4998475;28;20057;-67
2022/09/06 07:09:14;;;;;;;5.88;4.88;;;;;;;;;;5004097;28;20053;-67
2022/09/06 07:11:41;;;;;;;8.68;4.15;;;;;;;;;;4982410;28;20050;-67
2022/09/06 07:14:07;;;;;;;7.97;4.20;;;;;;;;;;5032060;28;20508;-67
2022/09/06 07:16:34;;;;;;;7.93;5.15;;;;;;;;;;5032011;28;20050;-67
2022/09/06 07:19:01;;;;;;;6.53;4.18;;;;;;;;;;5014066;28;20420;-67
2022/09/06 07:21:28;;;;;;;7.38;3.97;;;;;;;;;;5032074;28;20124;-68
2022/09/06 07:24:03;;;;;;;5.90;3.78;;;;;;;;;;5032231;28;20053;-67
2022/09/06 07:26:35;;;;;;;6.35;3.90;;;;;;;;;;5015512;28;20053;-67
2022/09/06 07:29:03;;;;;;;6.88;3.95;;;;;;;;;;5014107;28;20088;-67
2022/09/06 07:31:31;;;;;;;4.32;3.58;;;;;;;;;;5014245;28;20061;-68
2022/09/06 07:34:18;;;;;;;3.60;3.30;;;;;;;;;;5017234;28;20500;-67
2022/09/06 07:36:45;;;;;;;8.15;3.80;;;;;;;;;;5031777;28;20045;-68
2022/09/06 07:39:12;;;;;;;6.13;4.00;;;;;;;;;;4998061;28;20095;-66
2022/09/06 07:41:39;;;;;;;4.43;3.97;;;;;;;;;;5014341;28;20057;-67
2022/09/06 07:44:06;;;;;;;4.28;3.70;;;;;;;;;;5031286;28;20050;-67
2022/09/06 07:46:32;;;;;;;9.20;4.40;;;;;;;;;;5014381;28;20402;-67
2022/09/06 07:48:59;;;;;;;7.95;4.15;;;;;;;;;;5031541;28;20467;-67
2022/09/06 07:51:26;;;;;;;5.45;3.83;;;;;;;;;;5034565;28;20050;-67
2022/09/06 07:53:54;;;;;;;3.88;3.47;;;;;;;;;;5036347;28;20053;-66
2022/09/06 07:56:42;;;;;;;5.57;3.92;;;;;;;;;;5008111;28;20061;-68
2022/09/06 07:59:09;;;;;;;6.50;3.30;;;;;;;;;;4986010;28;20049;-66
2022/09/06 08:01:37;;;;;;;4.47;4.00;;;;;;;;;;5035780;28;20075;-67
2022/09/06 08:04:05;;;;;;;5.25;3.60;;;;;;;;;;5001799;28;20050;-66
2022/09/06 08:06:34;;;;;;;5.15;3.30;;;;;;;;;;5018190;28;20057;-67
2022/09/06 08:09:20;;;;;;;5.05;3.58;;;;;;;;;;5021021;28;20041;-66
2022/09/06 08:11:47;;;;;;;4.75;3.42;;;;;;;;;;5035259;28;20052;-66
2022/09/06 08:14:14;;;;;;;6.78;3.40;;;;;;;;;;5017908;28;20060;-67
2022/09/06 08:16:41;;;;;;;3.90;2.72;;;;;;;;;;5035445;28;20451;-68
2022/09/06 08:19:07;;;;;;;2.97;2.55;;;;;;;;;;5034899;28;20496;-70
2022/09/06 08:21:34;;;;;;;6.10;3.00;;;;;;;;;;5035183;28;20514;-68
2022/09/06 08:24:02;;;;;;;3.55;3.03;;;;;;;;;;5017883;28;20424;-68
2022/09/06 08:26:30;;;;;;;5.45;2.92;;;;;;;;;;5001525;28;20050;-68
2022/09/06 08:29:01;;;;;;;5.43;2.42;;;;;;;;;;4985017;28;20084;-68
2022/09/06 08:31:29;;;;;;;3.70;2.60;;;;;;;;;;5001351;28;20060;-67
2022/09/06 08:33:57;;;;;;;4.70;2.70;;;;;;;;;;4985373;28;20140;-67
2022/09/06 08:36:28;;;;;;;4.53;2.72;;;;;;;;;;5001609;28;20496;-67
2022/09/06 08:38:58;;;;;;;4.55;2.72;;;;;;;;;;5001644;28;20046;-67
2022/09/06 08:41:45;;;;;;;4.60;3.05;;;;;;;;;;5017393;28;20053;-67
2022/09/06 08:44:47;;;;;;;4.85;3.42;;;;;;;;;;5035030;28;20057;-68
2022/09/06 08:47:22;;;;;;;6.53;2.70;;;;;;;;;;5023351;28;20057;-68
2022/09/06 08:50:04;;;;;;;4.78;3.22;;;;;;;;;;5001095;28;20045;-68
2022/09/06 08:52:49;;;;;;;7.00;2.97;;;;;;;;;;4985477;28;20117;-68
2022/09/06 08:55:41;;;;;;;6.38;3.22;;;;;;;;;;5019914;28;20079;-67
2022/09/06 08:58:08;;;;;;;4.43;3.25;;;;;;;;;;5034517;28;20053;-67
2022/09/06 09:00:35;;;;;;;5.60;2.97;;;;;;;;;;5034313;28;20050;-68
2022/09/06 09:03:13;;;;;;;6.75;3.38;;;;;;;;;;5016039;28;20580;-67
2022/09/06 09:05:42;;;;;;;4.50;2.80;;;;;;;;;;5001560;28;20061;-67
2022/09/06 09:08:34;;;;;;;4.97;2.70;;;;;;;;;;5000503;28;20060;-67
2022/09/06 09:11:05;;;;;;;4.43;2.72;;;;;;;;;;5034231;28;20107;-68
2022/09/06 09:13:51;;;;;;;9.02;3.10;;;;;;;;;;5016789;28;20061;-67
2022/09/06 09:16:21;;;;;;;10.70;3.08;;;;;;;;;;5001718;28;20132;-67
2022/09/06 09:18:51;;;;;;;3.55;2.88;;;;;;;;;;5000221;28;20128;-67
2022/09/06 09:21:21;;;;;;;5.95;2.95;;;;;;;;;;5000883;28;20054;-67
2022/09/06 09:23:53;;;;;;;6.47;4.07;;;;;;;;;;5001795;28;20053;-67
2022/09/06 09:26:22;;;;;;;5.72;2.92;;;;;;;;;;5000410;28;20049;-67
2022/09/06 09:29:16;;;;;;;4.50;2.70;;;;;;;;;;5000095;28;20049;-68
2022/09/06 09:31:48;;;;;;;6.78;3.30;;;;;;;;;;5030632;28;20472;-67
2022/09/06 09:34:45;;;;;;;7.68;2.78;;;;;;;;;;5001735;28;20081;-67
2022/09/06 09:37:12;;;;;;;;;;;;;;;;;;5030843;28;20061;-67
2022/09/06 09:39:59;;;;;;;6.25;2.70;;;;;;;;;;5018655;28;20330;-68
2022/09/06 09:42:36;;;;;;;5.28;3.30;;;;;;;;;;5000047;28;20132;-68
2022/09/06 09:45:19;;;;;;;6.50;2.90;;;;;;;;;;5000368;28;20057;-67
2022/09/06 09:47:46;;;;;;;5.03;2.90;;;;;;;;;;5033520;28;20054;-68
2022/09/06 09:50:29;;;;;;;4.50;2.65;;;;;;;;;;5015918;28;20059;-67
2022/09/06 09:52:55;;;;;;;;;;;;;;;;;;5016490;28;20526;-68
2022/09/06 09:55:25;;;;;;;5.93;2.80;;;;;;;;;;4999569;28;19924;-67
2022/09/06 09:57:55;;;;;;;3.85;2.80;;;;;;;;;;4999791;28;20049;-67
2022/09/06 10:00:38;;;;;;;4.55;2.72;;;;;;;;;;5016490;28;20053;-67
2022/09/06 10:03:12;;;;;;;6.30;2.95;;;;;;;;;;5001450;28;20056;-67
2022/09/06 10:05:39;;;;;;;5.55;2.60;;;;;;;;;;4999792;28;20057;-67
2022/09/06 10:08:10;;;;;;;6.05;3.20;;;;;;;;;;4999526;28;20045;-68
2022/09/06 10:10:44;;;;;;;5.57;2.88;;;;;;;;;;4999685;28;20515;-67
2022/09/06 10:13:13;;;;;;;6.70;3.38;;;;;;;;;;5015884;28;20408;-67
2022/09/06 10:15:40;;;;;;;8.18;2.97;;;;;;;;;;5032554;28;20052;-68
2022/09/06 10:18:17;;;;;;;6.63;2.72;;;;;;;;;;5032749;28;20049;-68
2022/09/06 10:20:50;;;;;;;7.22;2.83;;;;;;;;;;5000148;28;20056;-67
2022/09/06 10:23:32;;;;;;;8.52;3.58;;;;;;;;;;4983260;28;20132;-67
2022/09/06 10:26:32;;;;;;;8.18;2.75;;;;;;;;;;5018745;28;20049;-67
2022/09/06 10:29:06;;;;;;;5.13;2.65;;;;;;;;;;5015145;28;20057;-67
2022/09/06 10:31:38;;;;;;;7.00;2.50;;;;;;;;;;4999199;28;20057;-68
2022/09/06 10:34:20;;;;;;;6.07;2.85;;;;;;;;;;5032790;28;20049;-67
2022/09/06 10:37:31;;;;;;;5.85;3.03;;;;;;;;;;5032682;28;20428;-67
2022/09/06 10:40:08;;;;;;;5.78;2.47;;;;;;;;;;5011109;28;20517;-67
2022/09/06 10:42:43;;;;;;;5.80;2.25;;;;;;;;;;5015572;28;20049;-68
2022/09/06 10:45:45;;;;;;;6.55;1.90;;;;;;;;;;4999081;28;20053;-68
2022/09/06 10:48:12;;;;;;;3.78;2.03;;;;;;;;;;4998658;28;20508;-68
2022/09/06 10:50:44;;;;;;;7.13;2.95;;;;;;;;;;5032478;28;20053;-68
2022/09/06 10:53:29;;;;;;;2.53;1.92;;;;;;;;;;4999087;28;20049;-68
2022/09/06 10:56:06;;;;;;;2.92;1.90;;;;;;;;;;5032757;28;20459;-68
2022/09/06 10:58:39;;;;;;;5.05;2.50;;;;;;;;;;5015019;28;20057;-68
2022/09/06 11:01:33;;;;;;;7.00;2.45;;;;;;;;;;5004398;28;20512;-68
2022/09/06 11:04:00;;;;;;;6.20;2.03;;;;;;;;;;4998864;28;20053;-68
2022/09/06 11:06:43;;;;;;;8.95;2.80;;;;;;;;;;5001633;28;20055;-68
2022/09/06 11:09:22;;;;;;;2.70;1.85;;;;;;;;;;4998620;28;20052;-68
2022/09/06 11:11:54;;;;;;;3.63;1.85;;;;;;;;;;5014454;28;20050;-68
2022/09/06 11:14:21;;;;;;;3.33;2.08;;;;;;;;;;4998775;28;20053;-68
2022/09/06 11:16:53;;;;;;;3.85;1.92;;;;;;;;;;4982441;28;20060;-68
2022/09/06 11:19:23;;;;;;;3.35;2.05;;;;;;;;;;4998090;28;20049;-68
2022/09/06 11:22:13;;;;;;;2.78;1.77;;;;;;;;;;5014875;28;20076;-68
2022/09/06 11:24:56;;;;;;;4.40;2.30;;;;;;;;;;5016924;28;20050;-68
2022/09/06 11:27:36;;;;;;;6.97;2.83;;;;;;;;;;5016132;28;20060;-68
2022/09/06 11:30:05;;;;;;;7.68;2.78;;;;;;;;;;4998014;28;20515;-68
2022/09/06 11:32:47;;;;;;;5.88;3.70;;;;;;;;;;4998753;28;20492;-68
2022/09/06 11:35:33;;;;;;;6.05;3.05;;;;;;;;;;5015110;28;20514;-68
2022/09/06 11:38:03;;;;;;;5.53;2.10;;;;;;;;;;5014413;28;20053;-68
2022/09/06 11:40:37;;;;;;;9.85;2.95;;;;;;;;;;5014508;28;20455;-68
2022/09/06 11:43:03;;;;;;;4.82;1.77;;;;;;;;;;4998258;28;20052;-68
2022/09/06 11:45:53;;;;;;;5.28;3.78;;;;;;;;;;5031828;28;20049;-69
2022/09/06 11:48:22;;;;;;;4.18;2.55;;;;;;;;;;5051952;23;20044;-69
2022/09/06 11:50:52;;;;;;;4.68;2.53;;;;;;;;;;5051996;28;20399;-70
2022/09/06 11:53:21;;;;;;;5.72;2.53;;;;;;;;;;5052085;28;20517;-69
2022/09/06 11:56:21;;;;;;;6.45;2.40;;;;;;;;;;5051937;28;20057;-69
2022/09/06 11:58:55;;;;;;;3.42;2.10;;;;;;;;;;5034370;28;20049;-69
2022/09/06 12:01:21;;;;;;;6.07;2.70;;;;;;;;;;5034099;28;20045;-70
2022/09/06 12:03:48;;;;;;;5.68;2.63;;;;;;;;;;5052029;28;20072;-69
2022/09/06 12:07:03;;;;;;;9.98;3.00;;;;;;;;;;5052174;28;20049;-69
2022/09/06 12:09:32;;;;;;;4.38;2.42;;;;;;;;;;5051682;28;20049;-69
2022/09/06 12:11:59;;;;;;;6.30;3.35;;;;;;;;;;5034176;28;20053;-69
2022/09/06 12:14:33;;;;;;;6.88;2.72;;;;;;;;;;5034225;28;20500;-69
2022/09/06 12:17:00;;;;;;;5.43;2.40;;;;;;;;;;5051799;28;20049;-69
2022/09/06 12:19:50;;;;;;;8.10;2.63;;;;;;;;;;5051323;28;20053;-69
2022/09/06 12:22:26;;;;;;;6.30;1.98;;;;;;;;;;5018970;28;20163;-69
2022/09/06 12:24:58;;;;;;;6.10;2.92;;;;;;;;;;5051783;28;20060;-70
2022/09/06 12:27:38;;;;;;;5.13;2.60;;;;;;;;;;5052041;28;20048;-70
2022/09/06 12:30:11;;;;;;;3.75;2.25;;;;;;;;;;5018843;28;20049;-70
2022/09/06 12:32:44;;;;;;;7.80;2.50;;;;;;;;;;5034431;28;20427;-70
2022/09/06 12:35:18;;;;;;;5.75;2.42;;;;;;;;;;5051560;28;20045;-69
2022/09/06 12:38:14;;;;;;;5.53;2.63;;;;;;;;;;5039411;28;20045;-70
2022/09/06 12:40:46;;;;;;;5.13;3.17;;;;;;;;;;5055420;28;20048;-70
2022/09/06 12:43:14;;;;;;;4.13;2.40;;;;;;;;;;5037996;28;20415;-70
2022/09/06 12:45:49;;;;;;;4.53;2.47;;;;;;;;;;5021470;28;20049;-69
2022/09/06 12:48:26;;;;;;;5.43;2.70;;;;;;;;;;5054671;28;20507;-69
2022/09/06 12:51:06;;;;;;;8.98;2.60;;;;;;;;;;5055389;28;20099;-70
2022/09/06 12:53:33;;;;;;;4.13;2.38;;;;;;;;;;5055241;28;20056;-70
2022/09/06 12:56:04;;;;;;;7.32;2.22;;;;;;;;;;5055069;28;20103;-70
2022/09/06 12:58:31;;;;;;;5.18;2.42;;;;;;;;;;5054663;28;20125;-69
2022/09/06 13:01:05;;;;;;;5.07;2.60;;;;;;;;;;5054952;28;20415;-69
2022/09/06 13:03:36;;;;;;;4.88;2.33;;;;;;;;;;5055196;28;20057;-69
2022/09/06 13:06:04;;;;;;;4.70;2.05;;;;;;;;;;5021225;28;20053;-69
2022/09/06 13:08:43;;;;;;;4.32;2.95;;;;;;;;;;5036960;28;20086;-69
2022/09/06 13:11:12;;;;;;;3.80;2.33;;;;;;;;;;5022117;28;20114;-69
2022/09/06 13:13:52;;;;;;;7.10;2.88;;;;;;;;;;5054553;28;20056;-69
2022/09/06 13:16:35;;;;;;;4.25;2.35;;;;;;;;;;5054926;28;20056;-70
2022/09/06 13:19:38;;;;;;;3.80;2.00;;;;;;;;;;5054520;28;20063;-70
2022/09/06 13:22:09;;;;;;;3.40;1.98;;;;;;;;;;4954227;29;20047;-69
2022/09/06 13:24:45;;;;;;;4.35;2.00;;;;;;;;;;5038583;28;20087;-69
2022/09/06 13:27:35;;;;;;;3.60;1.88;;;;;;;;;;5038008;28;20128;-69
2022/09/06 13:30:07;;;;;;;3.33;2.65;;;;;;;;;;5054403;28;20040;-69
2022/09/06 13:32:34;;;;;;;;;;;;;;;;;;5054783;28;20132;-69
2022/09/06 13:35:01;;;;;;;7.43;2.15;;;;;;;;;;5036625;28;19928;-70
2022/09/06 13:37:30;;;;;;;4.07;2.20;;;;;;;;;;5054333;28;20099;-70
2022/09/06 13:39:58;;;;;;;2.80;1.85;;;;;;;;;;5054512;28;20434;-69
2022/09/06 13:42:24;;;;;;;6.18;1.75;;;;;;;;;;5036733;28;20053;-69
2022/09/06 13:44:51;;;;;;;2.85;1.80;;;;;;;;;;5054320;28;20110;-70
2022/09/06 13:47:17;;;;;;;5.93;2.40;;;;;;;;;;5036889;28;20056;-69
2022/09/06 13:49:45;;;;;;;5.68;2.33;;;;;;;;;;5053417;28;20049;-69
2022/09/06 13:52:11;;;;;;;5.07;2.08;;;;;;;;;;5054073;28;20084;-69
2022/09/06 13:54:38;;;;;;;5.13;2.13;;;;;;;;;;5020053;28;20557;-69
2022/09/06 13:57:05;;;;;;;6.70;2.10;;;;;;;;;;5054041;28;20415;-69
2022/09/06 13:59:32;;;;;;;3.97;2.20;;;;;;;;;;5053637;28;20056;-69
2022/09/06 14:02:03;;;;;;;9.18;2.65;;;;;;;;;;5053939;28;20041;-69
2022/09/06 14:04:31;;;;;;;5.63;2.20;;;;;;;;;;5035998;28;20518;-69
2022/09/06 14:06:57;;;;;;;4.85;1.92;;;;;;;;;;5053671;28;20718;-69
2022/09/06 14:09:24;;;;;;;3.65;2.08;;;;;;;;;;5053209;28;20503;-69
2022/09/06 14:11:51;;;;;;;3.53;2.92;;;;;;;;;;5053585;28;20041;-69
2022/09/06 14:14:18;;;;;;;2.90;1.70;;;;;;;;;;5053503;28;20056;-69
2022/09/06 14:16:46;;;;;;;8.52;2.50;;;;;;;;;;5053817;28;20427;-69
2022/09/06 14:19:13;;;;;;;4.47;2.20;;;;;;;;;;5053047;28;20053;-69
2022/09/06 14:21:39;;;;;;;4.55;1.85;;;;;;;;;;5053202;28;20063;-69
2022/09/06 14:24:06;;;;;;;5.32;1.90;;;;;;;;;;5053201;28;20045;-69
2022/09/06 14:26:35;;;;;;;7.05;2.83;;;;;;;;;;5053540;28;20056;-69
2022/09/06 14:29:02;;;;;;;4.47;2.35;;;;;;;;;;5053162;28;20056;-69
2022/09/06 14:31:28;;;;;;;6.97;2.60;;;;;;;;;;5053209;28;20049;-69
2022/09/06 14:33:55;;;;;;;3.88;2.13;;;;;;;;;;5053087;28;20099;-69
2022/09/06 14:36:25;;;;;;;5.80;2.50;;;;;;;;;;5052835;28;20053;-69
2022/09/06 14:38:52;;;;;;;5.32;2.70;;;;;;;;;;5052877;28;20052;-69
2022/09/06 14:41:19;;;;;;;8.20;3.30;;;;;;;;;;5053372;28;20106;-69
2022/09/06 14:43:50;;;;;;;16.67;3.67;;;;;;;;;;5052913;28;20495;-69
2022/09/06 14:46:18;;;;;;;4.80;3.05;;;;;;;;;;5053032;28;20127;-69
2022/09/06 14:48:45;;;;;;;5.68;3.03;;;;;;;;;;5052611;28;20419;-69
2022/09/06 14:51:13;;;;;;;8.85;3.88;;;;;;;;;;5052916;28;20119;-69
2022/09/06 14:53:40;;;;;;;6.90;3.00;;;;;;;;;;5052993;28;20052;-69
2022/09/06 14:56:08;;;;;;;6.45;3.60;;;;;;;;;;5052738;28;20052;-69
2022/09/06 14:58:36;;;;;;;7.90;3.15;;;;;;;;;;5052356;28;20511;-69
2022/09/06 15:01:20;;;;;;;6.05;2.92;;;;;;;;;;5052102;28;20041;-69
2022/09/06 15:03:53;;;;;;;9.43;4.38;;;;;;;;;;5052953;28;20073;-69
2022/09/06 15:06:20;;;;;;;7.28;3.75;;;;;;;;;;5035517;28;20045;-69
2022/09/06 15:08:47;;;;;;;5.82;3.80;;;;;;;;;;5052220;28;20067;-69